sensor_id;sensor_type;location;lat;lon;timestamp;P1;durP1;ratioP1;P2;durP2;ratioP2
59054;SDS011;44845;51.444;7.460;2023-06-22T00:00:42;4.38;;;2.60;;
59054;SDS011;44845;51.444;7.460;2023-06-22T00:03:08;4.25;;;3.33;;
59054;SDS011;44845;51.444;7.460;2023-06-22T00:05:34;3.72;;;2.75;;
59054;SDS011;44845;51.444;7.460;2023-06-22T00:08:02;3.50;;;2.70;;
59054;SDS011;44845;51.444;7.460;2023-06-22T00:10:28;5.78;;;3.88;;
59054;SDS011;44845;51.444;7.460;2023-06-22T00:12:53;3.88;;;3.10;;
59054;SDS011;44845;51.444;7.460;2023-06-22T00:15:18;4.10;;;2.70;;
59054;SDS011;44845;51.444;7.460;2023-06-22T00:17:45;5.43;;;3.00;;
59054;SDS011;44845;51.444;7.460;2023-06-22T00:20:10;4.32;;;2.90;;
59054;SDS011;44845;51.444;7.460;2023-06-22T00:22:36;3.90;;;2.67;;
59054;SDS011;44845;51.444;7.460;2023-06-22T00:25:04;3.30;;;2.90;;
59054;SDS011;44845;51.444;7.460;2023-06-22T00:27:31;5.18;;;2.58;;
59054;SDS011;44845;51.444;7.460;2023-06-22T00:29:56;4.05;;;2.90;;
59054;SDS011;44845;51.444;7.460;2023-06-22T00:32:22;3.25;;;2.70;;
59054;SDS011;44845;51.444;7.460;2023-06-22T00:34:47;2.70;;;2.50;;
59054;SDS011;44845;51.444;7.460;2023-06-22T00:37:12;4.43;;;2.72;;
59054;SDS011;44845;51.444;7.460;2023-06-22T00:39:37;5.22;;;3.30;;
59054;SDS011;44845;51.444;7.460;2023-06-22T00:42:03;2.70;;;2.45;;
59054;SDS011;44845;51.444;7.460;2023-06-22T00:44:29;5.05;;;3.00;;
59054;SDS011;44845;51.444;7.460;2023-06-22T00:46:54;4.22;;;2.90;;
59054;SDS011;44845;51.444;7.460;2023-06-22T00:49:20;5.57;;;2.90;;
59054;SDS011;44845;51.444;7.460;2023-06-22T00:51:45;5.03;;;3.22;;
59054;SDS011;44845;51.444;7.460;2023-06-22T00:54:12;5.35;;;3.28;;
59054;SDS011;44845;51.444;7.460;2023-06-22T00:56:39;4.78;;;2.83;;
59054;SDS011;44845;51.444;7.460;2023-06-22T00:59:05;4.50;;;3.15;;
59054;SDS011;44845;51.444;7.460;2023-06-22T01:01:31;3.67;;;2.60;;
59054;SDS011;44845;51.444;7.460;2023-06-22T01:03:57;3.67;;;3.00;;
59054;SDS011;44845;51.444;7.460;2023-06-22T01:06:26;3.50;;;3.20;;
59054;SDS011;44845;51.444;7.460;2023-06-22T01:09:14;6.03;;;3.15;;
59054;SDS011;44845;51.444;7.460;2023-06-22T01:11:45;3.67;;;2.92;;
59054;SDS011;44845;51.444;7.460;2023-06-22T01:14:16;3.63;;;3.05;;
59054;SDS011;44845;51.444;7.460;2023-06-22T01:16:48;5.25;;;3.35;;
59054;SDS011;44845;51.444;7.460;2023-06-22T01:19:28;5.70;;;3.38;;
59054;SDS011;44845;51.444;7.460;2023-06-22T01:22:04;4.43;;;3.25;;
59054;SDS011;44845;51.444;7.460;2023-06-22T01:24:37;4.80;;;3.08;;
59054;SDS011;44845;51.444;7.460;2023-06-22T01:29:57;7.68;;;3.38;;
59054;SDS011;44845;51.444;7.460;2023-06-22T01:32:32;4.00;;;2.88;;
59054;SDS011;44845;51.444;7.460;2023-06-22T01:37:26;4.53;;;3.38;;
59054;SDS011;44845;51.444;7.460;2023-06-22T01:39:53;5.07;;;4.20;;
59054;SDS011;44845;51.444;7.460;2023-06-22T01:42:20;4.70;;;3.45;;
59054;SDS011;44845;51.444;7.460;2023-06-22T01:44:46;7.00;;;3.70;;
59054;SDS011;44845;51.444;7.460;2023-06-22T01:47:12;4.47;;;3.13;;
59054;SDS011;44845;51.444;7.460;2023-06-22T01:49:39;3.72;;;2.92;;
59054;SDS011;44845;51.444;7.460;2023-06-22T01:52:06;4.15;;;3.15;;
59054;SDS011;44845;51.444;7.460;2023-06-22T01:54:31;2.85;;;2.65;;
59054;SDS011;44845;51.444;7.460;2023-06-22T01:56:57;3.95;;;3.53;;
59054;SDS011;44845;51.444;7.460;2023-06-22T01:59:26;3.40;;;2.85;;
59054;SDS011;44845;51.444;7.460;2023-06-22T02:02:01;5.85;;;3.42;;
59054;SDS011;44845;51.444;7.460;2023-06-22T02:04:54;5.55;;;3.10;;
59054;SDS011;44845;51.444;7.460;2023-06-22T02:07:20;7.57;;;3.53;;
59054;SDS011;44845;51.444;7.460;2023-06-22T02:09:48;3.72;;;3.08;;
59054;SDS011;44845;51.444;7.460;2023-06-22T02:12:18;5.90;;;3.45;;
59054;SDS011;44845;51.444;7.460;2023-06-22T02:14:48;5.43;;;3.38;;
59054;SDS011;44845;51.444;7.460;2023-06-22T02:17:13;4.93;;;3.60;;
59054;SDS011;44845;51.444;7.460;2023-06-22T02:19:42;6.50;;;4.15;;
59054;SDS011;44845;51.444;7.460;2023-06-22T02:22:08;4.43;;;4.00;;
59054;SDS011;44845;51.444;7.460;2023-06-22T02:24:33;5.35;;;4.22;;
59054;SDS011;44845;51.444;7.460;2023-06-22T02:26:59;6.57;;;4.50;;
59054;SDS011;44845;51.444;7.460;2023-06-22T02:29:26;5.82;;;4.18;;
59054;SDS011;44845;51.444;7.460;2023-06-22T02:31:52;6.10;;;4.13;;
59054;SDS011;44845;51.444;7.460;2023-06-22T02:34:18;9.02;;;3.97;;
59054;SDS011;44845;51.444;7.460;2023-06-22T02:36:47;6.72;;;3.78;;
59054;SDS011;44845;51.444;7.460;2023-06-22T02:39:18;4.55;;;4.00;;
59054;SDS011;44845;51.444;7.460;2023-06-22T02:41:51;7.22;;;3.65;;
59054;SDS011;44845;51.444;7.460;2023-06-22T02:44:17;4.55;;;3.50;;
59054;SDS011;44845;51.444;7.460;2023-06-22T02:46:43;3.88;;;3.03;;
59054;SDS011;44845;51.444;7.460;2023-06-22T02:49:09;6.18;;;3.25;;
59054;SDS011;44845;51.444;7.460;2023-06-22T02:51:38;4.85;;;3.85;;
59054;SDS011;44845;51.444;7.460;2023-06-22T02:54:04;5.28;;;3.10;;
59054;SDS011;44845;51.444;7.460;2023-06-22T02:56:30;5.07;;;3.00;;
59054;SDS011;44845;51.444;7.460;2023-06-22T02:58:56;6.53;;;3.60;;
59054;SDS011;44845;51.444;7.460;2023-06-22T03:01:25;5.80;;;4.03;;
59054;SDS011;44845;51.444;7.460;2023-06-22T03:03:52;8.48;;;5.78;;
59054;SDS011;44845;51.444;7.460;2023-06-22T03:06:18;7.28;;;5.50;;
59054;SDS011;44845;51.444;7.460;2023-06-22T03:08:47;6.43;;;5.20;;
59054;SDS011;44845;51.444;7.460;2023-06-22T03:11:13;6.85;;;5.40;;
59054;SDS011;44845;51.444;7.460;2023-06-22T03:13:38;7.43;;;5.45;;
59054;SDS011;44845;51.444;7.460;2023-06-22T03:19:00;8.57;;;4.70;;
59054;SDS011;44845;51.444;7.460;2023-06-22T03:21:28;6.68;;;4.53;;
59054;SDS011;44845;51.444;7.460;2023-06-22T03:23:54;7.55;;;4.25;;
59054;SDS011;44845;51.444;7.460;2023-06-22T03:26:20;5.63;;;4.85;;
59054;SDS011;44845;51.444;7.460;2023-06-22T03:28:46;8.00;;;5.90;;
59054;SDS011;44845;51.444;7.460;2023-06-22T03:31:11;8.35;;;6.15;;
59054;SDS011;44845;51.444;7.460;2023-06-22T03:33:37;7.10;;;6.15;;
59054;SDS011;44845;51.444;7.460;2023-06-22T03:36:02;8.52;;;5.57;;
59054;SDS011;44845;51.444;7.460;2023-06-22T03:38:28;7.93;;;5.65;;
59054;SDS011;44845;51.444;7.460;2023-06-22T03:40:53;7.53;;;5.80;;
59054;SDS011;44845;51.444;7.460;2023-06-22T03:43:19;7.78;;;5.68;;
59054;SDS011;44845;51.444;7.460;2023-06-22T03:45:44;8.18;;;6.18;;
59054;SDS011;44845;51.444;7.460;2023-06-22T03:48:12;8.88;;;6.18;;
59054;SDS011;44845;51.444;7.460;2023-06-22T03:50:38;8.70;;;5.70;;
59054;SDS011;44845;51.444;7.460;2023-06-22T03:53:03;6.65;;;5.60;;
59054;SDS011;44845;51.444;7.460;2023-06-22T03:55:28;6.28;;;5.57;;
59054;SDS011;44845;51.444;7.460;2023-06-22T03:57:54;5.95;;;5.35;;
59054;SDS011;44845;51.444;7.460;2023-06-22T04:00:22;6.63;;;5.75;;
59054;SDS011;44845;51.444;7.460;2023-06-22T04:02:50;9.55;;;6.85;;
59054;SDS011;44845;51.444;7.460;2023-06-22T04:05:15;7.55;;;6.40;;
59054;SDS011;44845;51.444;7.460;2023-06-22T04:07:43;8.07;;;6.05;;
59054;SDS011;44845;51.444;7.460;2023-06-22T04:10:08;8.38;;;5.90;;
59054;SDS011;44845;51.444;7.460;2023-06-22T04:12:34;9.15;;;6.22;;
59054;SDS011;44845;51.444;7.460;2023-06-22T04:14:59;8.70;;;6.38;;
59054;SDS011;44845;51.444;7.460;2023-06-22T04:17:24;8.57;;;7.10;;
59054;SDS011;44845;51.444;7.460;2023-06-22T04:19:50;9.23;;;6.30;;
59054;SDS011;44845;51.444;7.460;2023-06-22T04:22:16;10.15;;;7.72;;
59054;SDS011;44845;51.444;7.460;2023-06-22T04:24:42;9.25;;;7.78;;
59054;SDS011;44845;51.444;7.460;2023-06-22T04:27:07;10.20;;;8.10;;
59054;SDS011;44845;51.444;7.460;2023-06-22T04:29:32;7.57;;;6.60;;
59054;SDS011;44845;51.444;7.460;2023-06-22T04:31:58;10.68;;;7.97;;
59054;SDS011;44845;51.444;7.460;2023-06-22T04:34:27;10.65;;;8.02;;
59054;SDS011;44845;51.444;7.460;2023-06-22T04:36:53;20.60;;;8.32;;
59054;SDS011;44845;51.444;7.460;2023-06-22T04:39:19;9.60;;;7.60;;
59054;SDS011;44845;51.444;7.460;2023-06-22T04:41:45;12.35;;;8.57;;
59054;SDS011;44845;51.444;7.460;2023-06-22T04:44:11;8.68;;;7.78;;
59054;SDS011;44845;51.444;7.460;2023-06-22T04:46:37;9.18;;;7.57;;
59054;SDS011;44845;51.444;7.460;2023-06-22T04:49:07;12.23;;;8.77;;
59054;SDS011;44845;51.444;7.460;2023-06-22T04:51:37;12.15;;;7.85;;
59054;SDS011;44845;51.444;7.460;2023-06-22T04:54:04;11.52;;;7.78;;
59054;SDS011;44845;51.444;7.460;2023-06-22T04:56:30;7.88;;;6.95;;
59054;SDS011;44845;51.444;7.460;2023-06-22T04:58:57;8.20;;;6.97;;
59054;SDS011;44845;51.444;7.460;2023-06-22T05:01:23;9.15;;;7.03;;
59054;SDS011;44845;51.444;7.460;2023-06-22T05:03:48;13.40;;;7.13;;
59054;SDS011;44845;51.444;7.460;2023-06-22T05:06:14;7.75;;;6.43;;
59054;SDS011;44845;51.444;7.460;2023-06-22T05:08:40;11.90;;;7.50;;
59054;SDS011;44845;51.444;7.460;2023-06-22T05:11:05;11.80;;;6.95;;
59054;SDS011;44845;51.444;7.460;2023-06-22T05:13:31;9.80;;;6.32;;
59054;SDS011;44845;51.444;7.460;2023-06-22T05:15:57;11.07;;;6.72;;
59054;SDS011;44845;51.444;7.460;2023-06-22T05:18:29;9.80;;;6.32;;
59054;SDS011;44845;51.444;7.460;2023-06-22T05:20:55;14.52;;;7.22;;
59054;SDS011;44845;51.444;7.460;2023-06-22T05:23:21;9.07;;;6.85;;
59054;SDS011;44845;51.444;7.460;2023-06-22T05:25:46;9.32;;;7.28;;
59054;SDS011;44845;51.444;7.460;2023-06-22T05:28:11;12.73;;;7.35;;
59054;SDS011;44845;51.444;7.460;2023-06-22T05:30:37;13.27;;;9.15;;
59054;SDS011;44845;51.444;7.460;2023-06-22T05:33:03;15.95;;;9.13;;
59054;SDS011;44845;51.444;7.460;2023-06-22T05:35:28;18.20;;;9.10;;
59054;SDS011;44845;51.444;7.460;2023-06-22T05:37:54;12.25;;;9.05;;
59054;SDS011;44845;51.444;7.460;2023-06-22T05:40:20;17.00;;;9.70;;
59054;SDS011;44845;51.444;7.460;2023-06-22T05:42:46;18.80;;;10.35;;
59054;SDS011;44845;51.444;7.460;2023-06-22T05:45:12;16.73;;;11.10;;
59054;SDS011;44845;51.444;7.460;2023-06-22T05:47:37;13.68;;;9.95;;
59054;SDS011;44845;51.444;7.460;2023-06-22T05:50:03;14.18;;;10.02;;
59054;SDS011;44845;51.444;7.460;2023-06-22T05:52:31;13.40;;;9.10;;
59054;SDS011;44845;51.444;7.460;2023-06-22T05:54:57;12.18;;;9.40;;
59054;SDS011;44845;51.444;7.460;2023-06-22T05:57:22;11.73;;;9.27;;
59054;SDS011;44845;51.444;7.460;2023-06-22T05:59:47;11.68;;;10.20;;
59054;SDS011;44845;51.444;7.460;2023-06-22T06:02:13;11.15;;;9.55;;
59054;SDS011;44845;51.444;7.460;2023-06-22T06:04:39;19.65;;;15.75;;
59054;SDS011;44845;51.444;7.460;2023-06-22T06:07:04;26.63;;;14.57;;
59054;SDS011;44845;51.444;7.460;2023-06-22T06:09:29;22.77;;;16.13;;
59054;SDS011;44845;51.444;7.460;2023-06-22T06:11:55;21.95;;;13.93;;
59054;SDS011;44845;51.444;7.460;2023-06-22T06:14:20;24.02;;;14.93;;
59054;SDS011;44845;51.444;7.460;2023-06-22T06:16:46;27.98;;;12.80;;
59054;SDS011;44845;51.444;7.460;2023-06-22T06:19:11;21.98;;;13.48;;
59054;SDS011;44845;51.444;7.460;2023-06-22T06:21:36;21.15;;;14.20;;
59054;SDS011;44845;51.444;7.460;2023-06-22T06:24:02;16.85;;;12.27;;
59054;SDS011;44845;51.444;7.460;2023-06-22T06:26:27;15.43;;;12.23;;
59054;SDS011;44845;51.444;7.460;2023-06-22T06:28:55;16.42;;;11.73;;
59054;SDS011;44845;51.444;7.460;2023-06-22T06:31:21;14.02;;;11.77;;
59054;SDS011;44845;51.444;7.460;2023-06-22T06:33:46;12.50;;;9.88;;
59054;SDS011;44845;51.444;7.460;2023-06-22T06:36:11;16.00;;;12.15;;
59054;SDS011;44845;51.444;7.460;2023-06-22T06:38:37;13.65;;;11.40;;
59054;SDS011;44845;51.444;7.460;2023-06-22T06:41:02;15.45;;;11.23;;
59054;SDS011;44845;51.444;7.460;2023-06-22T06:43:27;12.98;;;10.43;;
59054;SDS011;44845;51.444;7.460;2023-06-22T06:45:53;13.80;;;10.70;;
59054;SDS011;44845;51.444;7.460;2023-06-22T06:48:18;12.60;;;10.10;;
59054;SDS011;44845;51.444;7.460;2023-06-22T06:50:43;15.40;;;11.73;;
59054;SDS011;44845;51.444;7.460;2023-06-22T06:53:09;15.98;;;10.32;;
59054;SDS011;44845;51.444;7.460;2023-06-22T06:55:35;13.40;;;9.25;;
59054;SDS011;44845;51.444;7.460;2023-06-22T06:58:01;10.98;;;9.32;;
59054;SDS011;44845;51.444;7.460;2023-06-22T07:00:27;13.95;;;9.88;;
59054;SDS011;44845;51.444;7.460;2023-06-22T07:02:53;12.90;;;9.68;;
59054;SDS011;44845;51.444;7.460;2023-06-22T07:05:18;13.07;;;8.60;;
59054;SDS011;44845;51.444;7.460;2023-06-22T07:07:44;11.02;;;9.13;;
59054;SDS011;44845;51.444;7.460;2023-06-22T07:10:09;9.90;;;8.18;;
59054;SDS011;44845;51.444;7.460;2023-06-22T07:12:35;9.82;;;8.82;;
59054;SDS011;44845;51.444;7.460;2023-06-22T07:15:04;12.82;;;8.27;;
59054;SDS011;44845;51.444;7.460;2023-06-22T07:17:33;10.70;;;8.38;;
59054;SDS011;44845;51.444;7.460;2023-06-22T07:19:58;12.73;;;8.93;;
59054;SDS011;44845;51.444;7.460;2023-06-22T07:22:23;9.35;;;8.18;;
59054;SDS011;44845;51.444;7.460;2023-06-22T07:24:49;9.40;;;8.45;;
59054;SDS011;44845;51.444;7.460;2023-06-22T07:27:14;9.55;;;7.80;;
59054;SDS011;44845;51.444;7.460;2023-06-22T07:29:43;13.35;;;9.10;;
59054;SDS011;44845;51.444;7.460;2023-06-22T07:32:08;10.65;;;8.82;;
59054;SDS011;44845;51.444;7.460;2023-06-22T07:34:34;11.55;;;9.60;;
59054;SDS011;44845;51.444;7.460;2023-06-22T07:36:59;10.23;;;8.68;;
59054;SDS011;44845;51.444;7.460;2023-06-22T07:39:25;10.88;;;8.88;;
59054;SDS011;44845;51.444;7.460;2023-06-22T07:41:51;12.57;;;9.35;;
59054;SDS011;44845;51.444;7.460;2023-06-22T07:44:17;13.43;;;10.23;;
59054;SDS011;44845;51.444;7.460;2023-06-22T07:46:42;12.02;;;10.70;;
59054;SDS011;44845;51.444;7.460;2023-06-22T07:49:07;13.07;;;10.70;;
59054;SDS011;44845;51.444;7.460;2023-06-22T07:51:35;14.57;;;10.77;;
59054;SDS011;44845;51.444;7.460;2023-06-22T07:54:01;13.43;;;10.23;;
59054;SDS011;44845;51.444;7.460;2023-06-22T07:56:26;15.93;;;11.32;;
59054;SDS011;44845;51.444;7.460;2023-06-22T07:58:52;14.73;;;12.10;;
59054;SDS011;44845;51.444;7.460;2023-06-22T08:01:18;12.55;;;11.23;;
59054;SDS011;44845;51.444;7.460;2023-06-22T08:03:45;15.95;;;11.80;;
59054;SDS011;44845;51.444;7.460;2023-06-22T08:06:13;15.25;;;11.70;;
59054;SDS011;44845;51.444;7.460;2023-06-22T08:08:38;14.73;;;12.63;;
59054;SDS011;44845;51.444;7.460;2023-06-22T08:11:03;14.02;;;12.52;;
59054;SDS011;44845;51.444;7.460;2023-06-22T08:13:30;12.93;;;11.63;;
59054;SDS011;44845;51.444;7.460;2023-06-22T08:15:56;16.50;;;12.30;;
59054;SDS011;44845;51.444;7.460;2023-06-22T08:18:21;16.00;;;11.95;;
59054;SDS011;44845;51.444;7.460;2023-06-22T08:20:46;21.83;;;13.25;;
59054;SDS011;44845;51.444;7.460;2023-06-22T08:23:12;15.52;;;11.73;;
59054;SDS011;44845;51.444;7.460;2023-06-22T08:25:37;16.20;;;12.68;;
59054;SDS011;44845;51.444;7.460;2023-06-22T08:28:03;13.95;;;11.95;;
59054;SDS011;44845;51.444;7.460;2023-06-22T08:30:28;12.65;;;11.05;;
59054;SDS011;44845;51.444;7.460;2023-06-22T08:32:54;12.50;;;11.20;;
59054;SDS011;44845;51.444;7.460;2023-06-22T08:35:20;12.38;;;10.25;;
59054;SDS011;44845;51.444;7.460;2023-06-22T08:37:47;11.55;;;9.68;;
59054;SDS011;44845;51.444;7.460;2023-06-22T08:40:17;12.88;;;10.27;;
59054;SDS011;44845;51.444;7.460;2023-06-22T08:42:44;13.57;;;10.82;;
59054;SDS011;44845;51.444;7.460;2023-06-22T08:45:10;13.02;;;11.68;;
59054;SDS011;44845;51.444;7.460;2023-06-22T08:47:36;13.27;;;10.63;;
59054;SDS011;44845;51.444;7.460;2023-06-22T08:50:01;14.13;;;9.77;;
59054;SDS011;44845;51.444;7.460;2023-06-22T08:52:29;11.00;;;9.90;;
59054;SDS011;44845;51.444;7.460;2023-06-22T08:54:55;16.83;;;10.05;;
59054;SDS011;44845;51.444;7.460;2023-06-22T08:57:21;14.60;;;10.57;;
59054;SDS011;44845;51.444;7.460;2023-06-22T08:59:47;10.63;;;9.55;;
59054;SDS011;44845;51.444;7.460;2023-06-22T09:02:12;11.48;;;10.20;;
59054;SDS011;44845;51.444;7.460;2023-06-22T09:04:37;12.70;;;9.85;;
59054;SDS011;44845;51.444;7.460;2023-06-22T09:07:03;11.48;;;10.00;;
59054;SDS011;44845;51.444;7.460;2023-06-22T09:09:29;14.18;;;9.57;;
59054;SDS011;44845;51.444;7.460;2023-06-22T09:11:54;11.98;;;9.95;;
59054;SDS011;44845;51.444;7.460;2023-06-22T09:14:19;12.15;;;9.32;;
59054;SDS011;44845;51.444;7.460;2023-06-22T09:16:45;12.43;;;9.38;;
59054;SDS011;44845;51.444;7.460;2023-06-22T09:19:10;12.38;;;9.73;;
59054;SDS011;44845;51.444;7.460;2023-06-22T09:21:35;11.35;;;9.57;;
59054;SDS011;44845;51.444;7.460;2023-06-22T09:24:01;13.23;;;10.90;;
59054;SDS011;44845;51.444;7.460;2023-06-22T09:26:26;12.52;;;10.90;;
59054;SDS011;44845;51.444;7.460;2023-06-22T09:28:52;11.77;;;9.73;;
59054;SDS011;44845;51.444;7.460;2023-06-22T09:31:18;9.98;;;8.90;;
59054;SDS011;44845;51.444;7.460;2023-06-22T09:33:46;11.18;;;9.55;;
59054;SDS011;44845;51.444;7.460;2023-06-22T09:36:12;9.77;;;8.75;;
59054;SDS011;44845;51.444;7.460;2023-06-22T09:38:37;10.73;;;8.10;;
59054;SDS011;44845;51.444;7.460;2023-06-22T09:41:03;10.82;;;8.27;;
59054;SDS011;44845;51.444;7.460;2023-06-22T09:43:29;9.82;;;7.78;;
59054;SDS011;44845;51.444;7.460;2023-06-22T09:45:57;9.75;;;8.20;;
59054;SDS011;44845;51.444;7.460;2023-06-22T09:48:22;8.82;;;8.00;;
59054;SDS011;44845;51.444;7.460;2023-06-22T09:50:48;10.63;;;8.88;;
59054;SDS011;44845;51.444;7.460;2023-06-22T09:53:13;12.93;;;7.70;;
59054;SDS011;44845;51.444;7.460;2023-06-22T09:55:38;11.38;;;8.52;;
59054;SDS011;44845;51.444;7.460;2023-06-22T09:58:04;10.95;;;8.65;;
59054;SDS011;44845;51.444;7.460;2023-06-22T10:00:29;10.82;;;8.57;;
59054;SDS011;44845;51.444;7.460;2023-06-22T10:02:55;9.85;;;8.85;;
59054;SDS011;44845;51.444;7.460;2023-06-22T10:05:23;13.27;;;9.18;;
59054;SDS011;44845;51.444;7.460;2023-06-22T10:07:48;11.23;;;9.20;;
59054;SDS011;44845;51.444;7.460;2023-06-22T10:10:13;10.75;;;9.60;;
59054;SDS011;44845;51.444;7.460;2023-06-22T10:12:46;12.77;;;10.35;;
59054;SDS011;44845;51.444;7.460;2023-06-22T10:15:13;11.65;;;10.43;;
59054;SDS011;44845;51.444;7.460;2023-06-22T10:17:40;12.75;;;10.90;;
59054;SDS011;44845;51.444;7.460;2023-06-22T10:20:08;15.80;;;10.43;;
59054;SDS011;44845;51.444;7.460;2023-06-22T10:22:38;10.52;;;9.43;;
59054;SDS011;44845;51.444;7.460;2023-06-22T10:25:06;11.43;;;9.23;;
59054;SDS011;44845;51.444;7.460;2023-06-22T10:27:33;10.40;;;8.75;;
59054;SDS011;44845;51.444;7.460;2023-06-22T10:29:58;10.38;;;8.68;;
59054;SDS011;44845;51.444;7.460;2023-06-22T10:32:23;12.43;;;10.25;;
59054;SDS011;44845;51.444;7.460;2023-06-22T10:34:49;11.45;;;8.93;;
59054;SDS011;44845;51.444;7.460;2023-06-22T10:37:14;10.02;;;9.05;;
59054;SDS011;44845;51.444;7.460;2023-06-22T10:39:39;10.48;;;8.88;;
59054;SDS011;44845;51.444;7.460;2023-06-22T10:42:05;11.70;;;10.10;;
59054;SDS011;44845;51.444;7.460;2023-06-22T10:44:30;9.90;;;8.93;;
59054;SDS011;44845;51.444;7.460;2023-06-22T10:46:56;10.27;;;9.27;;
59054;SDS011;44845;51.444;7.460;2023-06-22T10:49:21;11.15;;;8.77;;
59054;SDS011;44845;51.444;7.460;2023-06-22T10:51:46;13.27;;;10.40;;
59054;SDS011;44845;51.444;7.460;2023-06-22T10:54:12;10.38;;;9.20;;
59054;SDS011;44845;51.444;7.460;2023-06-22T10:56:38;10.80;;;8.85;;
59054;SDS011;44845;51.444;7.460;2023-06-22T10:59:04;9.38;;;8.27;;
59054;SDS011;44845;51.444;7.460;2023-06-22T11:01:30;9.80;;;8.13;;
59054;SDS011;44845;51.444;7.460;2023-06-22T11:03:56;8.75;;;7.22;;
59054;SDS011;44845;51.444;7.460;2023-06-22T11:06:22;12.32;;;9.13;;
59054;SDS011;44845;51.444;7.460;2023-06-22T11:08:47;10.60;;;8.40;;
59054;SDS011;44845;51.444;7.460;2023-06-22T11:11:12;8.95;;;7.32;;
59054;SDS011;44845;51.444;7.460;2023-06-22T11:13:38;17.70;;;8.00;;
59054;SDS011;44845;51.444;7.460;2023-06-22T11:16:03;16.75;;;9.25;;
59054;SDS011;44845;51.444;7.460;2023-06-22T11:18:28;18.38;;;10.35;;
59054;SDS011;44845;51.444;7.460;2023-06-22T11:20:54;12.27;;;8.48;;
59054;SDS011;44845;51.444;7.460;2023-06-22T11:23:19;13.32;;;9.35;;
59054;SDS011;44845;51.444;7.460;2023-06-22T11:25:44;15.15;;;9.73;;
59054;SDS011;44845;51.444;7.460;2023-06-22T11:28:11;13.02;;;8.98;;
59054;SDS011;44845;51.444;7.460;2023-06-22T11:30:36;14.15;;;10.80;;
59054;SDS011;44845;51.444;7.460;2023-06-22T11:33:01;15.55;;;10.50;;
59054;SDS011;44845;51.444;7.460;2023-06-22T11:35:27;13.80;;;10.32;;
59054;SDS011;44845;51.444;7.460;2023-06-22T11:37:52;18.83;;;10.65;;
59054;SDS011;44845;51.444;7.460;2023-06-22T11:40:18;15.60;;;10.98;;
59054;SDS011;44845;51.444;7.460;2023-06-22T11:42:43;11.25;;;10.10;;
59054;SDS011;44845;51.444;7.460;2023-06-22T11:45:09;13.88;;;10.57;;
59054;SDS011;44845;51.444;7.460;2023-06-22T11:47:34;12.32;;;10.27;;
59054;SDS011;44845;51.444;7.460;2023-06-22T11:50:01;15.00;;;10.63;;
59054;SDS011;44845;51.444;7.460;2023-06-22T11:52:26;18.10;;;11.40;;
59054;SDS011;44845;51.444;7.460;2023-06-22T11:54:52;15.98;;;10.95;;
59054;SDS011;44845;51.444;7.460;2023-06-22T11:57:17;18.48;;;11.48;;
59054;SDS011;44845;51.444;7.460;2023-06-22T11:59:43;19.38;;;12.15;;
59054;SDS011;44845;51.444;7.460;2023-06-22T12:02:08;16.35;;;12.43;;
59054;SDS011;44845;51.444;7.460;2023-06-22T12:04:34;13.98;;;11.70;;
59054;SDS011;44845;51.444;7.460;2023-06-22T12:07:00;16.85;;;12.73;;
59054;SDS011;44845;51.444;7.460;2023-06-22T12:09:25;20.92;;;13.02;;
59054;SDS011;44845;51.444;7.460;2023-06-22T12:11:50;15.90;;;12.63;;
59054;SDS011;44845;51.444;7.460;2023-06-22T12:14:16;17.58;;;13.52;;
59054;SDS011;44845;51.444;7.460;2023-06-22T12:16:41;17.27;;;12.88;;
59054;SDS011;44845;51.444;7.460;2023-06-22T12:19:08;19.08;;;12.95;;
59054;SDS011;44845;51.444;7.460;2023-06-22T12:21:34;17.15;;;12.95;;
59054;SDS011;44845;51.444;7.460;2023-06-22T12:23:59;17.83;;;13.48;;
59054;SDS011;44845;51.444;7.460;2023-06-22T12:26:25;16.50;;;13.07;;
59054;SDS011;44845;51.444;7.460;2023-06-22T12:28:50;18.35;;;13.70;;
59054;SDS011;44845;51.444;7.460;2023-06-22T12:31:15;23.17;;;15.98;;
59054;SDS011;44845;51.444;7.460;2023-06-22T12:33:42;25.40;;;15.40;;
59054;SDS011;44845;51.444;7.460;2023-06-22T12:36:07;18.20;;;14.52;;
59054;SDS011;44845;51.444;7.460;2023-06-22T12:38:32;18.83;;;14.15;;
59054;SDS011;44845;51.444;7.460;2023-06-22T12:40:58;20.77;;;15.57;;
59054;SDS011;44845;51.444;7.460;2023-06-22T12:43:23;18.75;;;15.88;;
59054;SDS011;44845;51.444;7.460;2023-06-22T12:45:48;19.10;;;15.38;;
59054;SDS011;44845;51.444;7.460;2023-06-22T12:48:14;25.48;;;15.93;;
59054;SDS011;44845;51.444;7.460;2023-06-22T12:50:39;18.33;;;16.40;;
59054;SDS011;44845;51.444;7.460;2023-06-22T12:53:05;18.88;;;16.00;;
59054;SDS011;44845;51.444;7.460;2023-06-22T12:55:31;19.80;;;16.30;;
59054;SDS011;44845;51.444;7.460;2023-06-22T12:57:56;19.98;;;16.48;;
59054;SDS011;44845;51.444;7.460;2023-06-22T13:00:22;19.00;;;15.93;;
59054;SDS011;44845;51.444;7.460;2023-06-22T13:02:47;18.30;;;15.45;;
59054;SDS011;44845;51.444;7.460;2023-06-22T13:05:12;19.10;;;16.55;;
59054;SDS011;44845;51.444;7.460;2023-06-22T13:07:38;18.05;;;16.25;;
59054;SDS011;44845;51.444;7.460;2023-06-22T13:10:03;18.40;;;15.50;;
59054;SDS011;44845;51.444;7.460;2023-06-22T13:12:29;16.88;;;15.13;;
59054;SDS011;44845;51.444;7.460;2023-06-22T13:14:54;16.80;;;14.80;;
59054;SDS011;44845;51.444;7.460;2023-06-22T13:17:20;16.85;;;14.38;;
59054;SDS011;44845;51.444;7.460;2023-06-22T13:19:46;16.83;;;14.32;;
59054;SDS011;44845;51.444;7.460;2023-06-22T13:25:04;16.00;;;14.23;;
59054;SDS011;44845;51.444;7.460;2023-06-22T13:27:31;17.40;;;13.05;;
59054;SDS011;44845;51.444;7.460;2023-06-22T13:29:56;15.80;;;14.30;;
59054;SDS011;44845;51.444;7.460;2023-06-22T13:32:22;15.35;;;13.75;;
59054;SDS011;44845;51.444;7.460;2023-06-22T13:34:47;15.20;;;13.60;;
59054;SDS011;44845;51.444;7.460;2023-06-22T13:37:12;15.77;;;13.23;;
59054;SDS011;44845;51.444;7.460;2023-06-22T13:39:38;14.18;;;12.68;;
59054;SDS011;44845;51.444;7.460;2023-06-22T13:42:03;14.48;;;12.98;;
59054;SDS011;44845;51.444;7.460;2023-06-22T13:44:29;15.27;;;12.95;;
59054;SDS011;44845;51.444;7.460;2023-06-22T13:46:54;13.63;;;12.23;;
59054;SDS011;44845;51.444;7.460;2023-06-22T13:49:20;16.30;;;13.75;;
59054;SDS011;44845;51.444;7.460;2023-06-22T13:51:46;15.75;;;13.82;;
59054;SDS011;44845;51.444;7.460;2023-06-22T13:54:13;16.08;;;14.48;;
59054;SDS011;44845;51.444;7.460;2023-06-22T13:56:38;16.17;;;14.43;;
59054;SDS011;44845;51.444;7.460;2023-06-22T13:59:04;19.55;;;14.50;;
59054;SDS011;44845;51.444;7.460;2023-06-22T14:01:29;17.30;;;14.55;;
59054;SDS011;44845;51.444;7.460;2023-06-22T14:03:54;14.98;;;13.45;;
59054;SDS011;44845;51.444;7.460;2023-06-22T14:06:20;15.18;;;13.68;;
59054;SDS011;44845;51.444;7.460;2023-06-22T14:08:45;16.05;;;14.02;;
59054;SDS011;44845;51.444;7.460;2023-06-22T14:11:10;15.82;;;14.13;;
59054;SDS011;44845;51.444;7.460;2023-06-22T14:13:36;14.95;;;13.35;;
59054;SDS011;44845;51.444;7.460;2023-06-22T14:16:01;16.23;;;13.68;;
59054;SDS011;44845;51.444;7.460;2023-06-22T14:18:27;14.30;;;12.90;;
59054;SDS011;44845;51.444;7.460;2023-06-22T14:20:52;13.80;;;12.40;;
59054;SDS011;44845;51.444;7.460;2023-06-22T14:23:18;14.18;;;12.70;;
59054;SDS011;44845;51.444;7.460;2023-06-22T14:25:43;14.05;;;12.65;;
59054;SDS011;44845;51.444;7.460;2023-06-22T14:28:08;14.63;;;13.13;;
59054;SDS011;44845;51.444;7.460;2023-06-22T14:30:34;16.45;;;13.45;;
59054;SDS011;44845;51.444;7.460;2023-06-22T14:32:59;13.90;;;12.50;;
59054;SDS011;44845;51.444;7.460;2023-06-22T14:35:25;14.50;;;13.05;;
59054;SDS011;44845;51.444;7.460;2023-06-22T14:37:50;14.00;;;12.60;;